sensor_id;sensor_type;location;lat;lon;timestamp;pressure;altitude;pressure_sealevel;temperature;humidity
76132;BME280;64877;50.994;13.650;2023-10-19T00:00:31;98328.91;;;8.39;76.06
76132;BME280;64877;50.994;13.650;2023-10-19T00:02:59;98307.13;;;8.52;75.92
76132;BME280;64877;50.994;13.650;2023-10-19T00:05:28;98315.91;;;8.54;74.80
76132;BME280;64877;50.994;13.650;2023-10-19T00:07:56;98305.56;;;8.59;74.55
76132;BME280;64877;50.994;13.650;2023-10-19T00:10:23;98305.88;;;8.56;74.45
76132;BME280;64877;50.994;13.650;2023-10-19T00:12:50;98301.47;;;8.65;74.85
76132;BME280;64877;50.994;13.650;2023-10-19T00:15:24;98296.09;;;8.65;73.55
76132;BME280;64877;50.994;13.650;2023-10-19T00:17:51;98309.00;;;8.71;74.15
76132;BME280;64877;50.994;13.650;2023-10-19T00:20:19;98306.00;;;8.74;74.06
76132;BME280;64877;50.994;13.650;2023-10-19T00:23:02;98299.34;;;8.78;74.11
76132;BME280;64877;50.994;13.650;2023-10-19T00:25:31;98299.19;;;8.79;75.41
76132;BME280;64877;50.994;13.650;2023-10-19T00:28:00;98294.13;;;8.67;77.44
76132;BME280;64877;50.994;13.650;2023-10-19T00:30:29;98291.13;;;8.50;79.88
76132;BME280;64877;50.994;13.650;2023-10-19T00:33:01;98292.09;;;8.49;79.91
76132;BME280;64877;50.994;13.650;2023-10-19T00:35:33;98292.63;;;8.34;81.79
76132;BME280;64877;50.994;13.650;2023-10-19T00:37:59;98286.94;;;8.27;81.84
76132;BME280;64877;50.994;13.650;2023-10-19T00:40:52;98277.66;;;8.00;83.67
76132;BME280;64877;50.994;13.650;2023-10-19T00:43:28;98276.72;;;8.01;83.82
76132;BME280;64877;50.994;13.650;2023-10-19T00:45:58;98274.97;;;8.00;84.30
76132;BME280;64877;50.994;13.650;2023-10-19T00:48:26;98266.88;;;7.81;85.49
76132;BME280;64877;50.994;13.650;2023-10-19T00:50:53;98259.31;;;7.65;86.40
76132;BME280;64877;50.994;13.650;2023-10-19T00:53:34;98265.50;;;7.56;88.77
76132;BME280;64877;50.994;13.650;2023-10-19T00:56:01;98267.16;;;7.47;89.53
76132;BME280;64877;50.994;13.650;2023-10-19T00:58:30;98261.00;;;7.57;89.14
76132;BME280;64877;50.994;13.650;2023-10-19T01:00:56;98263.56;;;7.68;88.76
76132;BME280;64877;50.994;13.650;2023-10-19T01:03:26;98247.19;;;7.71;88.44
76132;BME280;64877;50.994;13.650;2023-10-19T01:05:57;98242.78;;;7.70;88.93
76132;BME280;64877;50.994;13.650;2023-10-19T01:08:23;98248.88;;;7.72;89.84
76132;BME280;64877;50.994;13.650;2023-10-19T01:10:51;98247.19;;;7.71;89.75
76132;BME280;64877;50.994;13.650;2023-10-19T01:13:18;98243.22;;;7.75;89.79
76132;BME280;64877;50.994;13.650;2023-10-19T01:15:52;98233.31;;;7.66;89.50
76132;BME280;64877;50.994;13.650;2023-10-19T01:18:18;98221.47;;;7.78;89.21
76132;BME280;64877;50.994;13.650;2023-10-19T01:20:44;98229.13;;;7.83;89.65
76132;BME280;64877;50.994;13.650;2023-10-19T01:23:20;98220.63;;;7.77;89.24
76132;BME280;64877;50.994;13.650;2023-10-19T01:25:59;98216.13;;;7.88;89.77
76132;BME280;64877;50.994;13.650;2023-10-19T01:28:27;98223.03;;;7.90;89.82
76132;BME280;64877;50.994;13.650;2023-10-19T01:31:16;98224.72;;;7.82;90.19
76132;BME280;64877;50.994;13.650;2023-10-19T01:33:43;98217.53;;;7.82;90.67
76132;BME280;64877;50.994;13.650;2023-10-19T01:36:12;98221.19;;;7.81;91.34
76132;BME280;64877;50.994;13.650;2023-10-19T01:38:40;98214.97;;;7.90;90.39
76132;BME280;64877;50.994;13.650;2023-10-19T01:41:09;98207.91;;;7.89;89.96
76132;BME280;64877;50.994;13.650;2023-10-19T01:43:45;98208.22;;;7.96;90.02
76132;BME280;64877;50.994;13.650;2023-10-19T01:46:13;98202.53;;;7.99;90.80
76132;BME280;64877;50.994;13.650;2023-10-19T01:48:40;98191.38;;;8.03;90.18
76132;BME280;64877;50.994;13.650;2023-10-19T01:51:10;98180.47;;;8.05;90.04
76132;BME280;64877;50.994;13.650;2023-10-19T01:53:40;98183.31;;;8.03;91.06
76132;BME280;64877;50.994;13.650;2023-10-19T01:56:13;98185.44;;;8.10;90.54
76132;BME280;64877;50.994;13.650;2023-10-19T01:58:41;98192.25;;;8.14;90.32
76132;BME280;64877;50.994;13.650;2023-10-19T02:01:08;98176.41;;;8.11;90.86
76132;BME280;64877;50.994;13.650;2023-10-19T02:03:40;98179.19;;;7.99;91.50
76132;BME280;64877;50.994;13.650;2023-10-19T02:06:11;98170.03;;;8.02;91.49
76132;BME280;64877;50.994;13.650;2023-10-19T02:08:46;98163.22;;;8.08;91.86
76132;BME280;64877;50.994;13.650;2023-10-19T02:11:20;98157.59;;;8.11;91.58
76132;BME280;64877;50.994;13.650;2023-10-19T02:13:47;98153.16;;;8.10;91.45
76132;BME280;64877;50.994;13.650;2023-10-19T02:16:15;98148.78;;;8.09;90.71
76132;BME280;64877;50.994;13.650;2023-10-19T02:18:45;98136.34;;;8.08;90.88
76132;BME280;64877;50.994;13.650;2023-10-19T02:21:10;98147.78;;;8.10;91.08
76132;BME280;64877;50.994;13.650;2023-10-19T02:23:40;98134.94;;;8.13;90.36
76132;BME280;64877;50.994;13.650;2023-10-19T02:26:09;98133.09;;;8.14;90.69
76132;BME280;64877;50.994;13.650;2023-10-19T02:28:34;98126.88;;;8.03;90.88
76132;BME280;64877;50.994;13.650;2023-10-19T02:31:03;98132.41;;;8.12;91.16
76132;BME280;64877;50.994;13.650;2023-10-19T02:33:44;98120.91;;;8.19;90.78
76132;BME280;64877;50.994;13.650;2023-10-19T02:36:16;98114.84;;;8.17;91.29
76132;BME280;64877;50.994;13.650;2023-10-19T02:38:45;98104.94;;;8.18;91.59
76132;BME280;64877;50.994;13.650;2023-10-19T02:41:16;98087.66;;;8.20;90.58
76132;BME280;64877;50.994;13.650;2023-10-19T02:43:43;98077.34;;;8.16;91.16
76132;BME280;64877;50.994;13.650;2023-10-19T02:46:13;98066.88;;;8.13;91.25
76132;BME280;64877;50.994;13.650;2023-10-19T02:48:39;98067.56;;;8.05;91.36
76132;BME280;64877;50.994;13.650;2023-10-19T02:51:11;98068.72;;;8.12;92.29
76132;BME280;64877;50.994;13.650;2023-10-19T02:53:39;98061.91;;;8.18;92.78
76132;BME280;64877;50.994;13.650;2023-10-19T02:56:10;98071.81;;;8.27;92.83
76132;BME280;64877;50.994;13.650;2023-10-19T02:58:37;98072.50;;;8.19;93.45
76132;BME280;64877;50.994;13.650;2023-10-19T03:01:02;98065.00;;;8.23;92.85
76132;BME280;64877;50.994;13.650;2023-10-19T03:03:28;98062.75;;;8.28;93.34
76132;BME280;64877;50.994;13.650;2023-10-19T03:05:56;98050.88;;;8.31;93.93
76132;BME280;64877;50.994;13.650;2023-10-19T03:08:24;98046.59;;;8.28;94.66
76132;BME280;64877;50.994;13.650;2023-10-19T03:10:51;98054.13;;;8.15;96.44
76132;BME280;64877;50.994;13.650;2023-10-19T03:13:29;98053.69;;;8.00;98.31
76132;BME280;64877;50.994;13.650;2023-10-19T03:15:54;98056.69;;;8.16;98.21
76132;BME280;64877;50.994;13.650;2023-10-19T03:18:20;98058.50;;;8.25;96.89
76132;BME280;64877;50.994;13.650;2023-10-19T03:20:45;98060.06;;;8.28;96.53
76132;BME280;64877;50.994;13.650;2023-10-19T03:23:10;98057.09;;;8.31;98.07
76132;BME280;64877;50.994;13.650;2023-10-19T03:25:36;98059.22;;;8.37;98.09
76132;BME280;64877;50.994;13.650;2023-10-19T03:28:20;98059.06;;;8.39;97.98
76132;BME280;64877;50.994;13.650;2023-10-19T03:30:45;98059.06;;;8.39;99.38
76132;BME280;64877;50.994;13.650;2023-10-19T03:33:12;98064.28;;;8.40;99.52
76132;BME280;64877;50.994;13.650;2023-10-19T03:35:38;98058.47;;;8.45;100.00
76132;BME280;64877;50.994;13.650;2023-10-19T03:38:08;98060.88;;;8.48;100.00
76132;BME280;64877;50.994;13.650;2023-10-19T03:40:41;98065.59;;;8.46;100.00
76132;BME280;64877;50.994;13.650;2023-10-19T03:43:06;98059.34;;;8.26;100.00
76132;BME280;64877;50.994;13.650;2023-10-19T03:45:42;98066.00;;;8.32;100.00
76132;BME280;64877;50.994;13.650;2023-10-19T03:48:14;98060.75;;;8.40;100.00
76132;BME280;64877;50.994;13.650;2023-10-19T03:50:44;98057.09;;;8.31;100.00
76132;BME280;64877;50.994;13.650;2023-10-19T03:53:11;98051.41;;;8.34;100.00
76132;BME280;64877;50.994;13.650;2023-10-19T03:55:38;98057.22;;;8.29;100.00
76132;BME280;64877;50.994;13.650;2023-10-19T03:58:04;98054.50;;;8.29;100.00
76132;BME280;64877;50.994;13.650;2023-10-19T04:00:30;98057.50;;;8.26;100.00
76132;BME280;64877;50.994;13.650;2023-10-19T04:02:59;98061.47;;;8.32;100.00
76132;BME280;64877;50.994;13.650;2023-10-19T04:05:24;98054.25;;;8.42;100.00
76132;BME280;64877;50.994;13.650;2023-10-19T04:07:51;98046.31;;;8.50;100.00
76132;BME280;64877;50.994;13.650;2023-10-19T04:10:24;98041.50;;;8.44;100.00
76132;BME280;64877;50.994;13.650;2023-10-19T04:12:56;98035.09;;;8.55;100.00
76132;BME280;64877;50.994;13.650;2023-10-19T04:15:25;98035.56;;;8.41;100.00
76132;BME280;64877;50.994;13.650;2023-10-19T04:17:52;98026.34;;;8.34;100.00
76132;BME280;64877;50.994;13.650;2023-10-19T04:20:20;98021.97;;;8.42;100.00
76132;BME280;64877;50.994;13.650;2023-10-19T04:22:52;98023.38;;;8.46;100.00
76132;BME280;64877;50.994;13.650;2023-10-19T04:25:19;98009.22;;;8.44;100.00
76132;BME280;64877;50.994;13.650;2023-10-19T04:27:46;98011.38;;;8.21;100.00
76132;BME280;64877;50.994;13.650;2023-10-19T04:30:13;98026.97;;;8.08;100.00
76132;BME280;64877;50.994;13.650;2023-10-19T04:32:42;98024.56;;;7.95;100.00
76132;BME280;64877;50.994;13.650;2023-10-19T04:35:09;98013.38;;;7.90;100.00
76132;BME280;64877;50.994;13.650;2023-10-19T04:37:35;98014.28;;;7.81;100.00
76132;BME280;64877;50.994;13.650;2023-10-19T04:40:01;98023.59;;;7.77;100.00
76132;BME280;64877;50.994;13.650;2023-10-19T04:42:27;98024.72;;;7.84;100.00
76132;BME280;64877;50.994;13.650;2023-10-19T04:44:54;98015.97;;;7.53;100.00
76132;BME280;64877;50.994;13.650;2023-10-19T04:47:20;98019.22;;;7.76;100.00
76132;BME280;64877;50.994;13.650;2023-10-19T04:49:45;98009.44;;;7.56;100.00
76132;BME280;64877;50.994;13.650;2023-10-19T04:52:10;98014.97;;;7.54;100.00
76132;BME280;64877;50.994;13.650;2023-10-19T04:54:36;98011.00;;;7.58;100.00
76132;BME280;64877;50.994;13.650;2023-10-19T04:57:02;98009.59;;;7.64;100.00
76132;BME280;64877;50.994;13.650;2023-10-19T04:59:28;98008.19;;;7.50;100.00
76132;BME280;64877;50.994;13.650;2023-10-19T05:01:58;98003.09;;;7.57;100.00
76132;BME280;64877;50.994;13.650;2023-10-19T05:04:27;97995.75;;;7.59;100.00
76132;BME280;64877;50.994;13.650;2023-10-19T05:06:52;98001.38;;;7.56;100.00
76132;BME280;64877;50.994;13.650;2023-10-19T05:09:17;98001.13;;;7.59;100.00
76132;BME280;64877;50.994;13.650;2023-10-19T05:11:43;97993.91;;;7.49;100.00
76132;BME280;64877;50.994;13.650;2023-10-19T05:14:12;97992.47;;;7.45;100.00
76132;BME280;64877;50.994;13.650;2023-10-19T05:16:39;97987.09;;;7.45;100.00
76132;BME280;64877;50.994;13.650;2023-10-19T05:19:05;97982.03;;;7.42;100.00
76132;BME280;64877;50.994;13.650;2023-10-19T05:21:31;97976.53;;;7.54;100.00
76132;BME280;64877;50.994;13.650;2023-10-19T05:23:56;97984.72;;;7.62;100.00
76132;BME280;64877;50.994;13.650;2023-10-19T05:26:22;97976.78;;;7.70;100.00
76132;BME280;64877;50.994;13.650;2023-10-19T05:28:48;97971.16;;;7.44;100.00
76132;BME280;64877;50.994;13.650;2023-10-19T05:31:13;97963.94;;;7.44;100.00
76132;BME280;64877;50.994;13.650;2023-10-19T05:33:40;97962.66;;;7.48;100.00
76132;BME280;64877;50.994;13.650;2023-10-19T05:36:06;97964.78;;;7.45;100.00
76132;BME280;64877;50.994;13.650;2023-10-19T05:38:31;97964.94;;;7.63;100.00
76132;BME280;64877;50.994;13.650;2023-10-19T05:40:58;97972.00;;;7.44;100.00
76132;BME280;64877;50.994;13.650;2023-10-19T05:43:26;97966.47;;;7.65;100.00
76132;BME280;64877;50.994;13.650;2023-10-19T05:45:53;97958.53;;;7.83;100.00
76132;BME280;64877;50.994;13.650;2023-10-19T05:48:20;97958.38;;;7.85;100.00
76132;BME280;64877;50.994;13.650;2023-10-19T05:50:46;97970.69;;;7.87;100.00
76132;BME280;64877;50.994;13.650;2023-10-19T05:53:11;97964.34;;;7.78;100.00
76132;BME280;64877;50.994;13.650;2023-10-19T05:55:37;97967.03;;;7.78;100.00
76132;BME280;64877;50.994;13.650;2023-10-19T05:58:04;97972.56;;;7.77;100.00
76132;BME280;64877;50.994;13.650;2023-10-19T06:00:30;97964.78;;;7.55;100.00
76132;BME280;64877;50.994;13.650;2023-10-19T06:02:56;97966.47;;;7.75;100.00
76132;BME280;64877;50.994;13.650;2023-10-19T06:05:23;97968.47;;;7.63;100.00
76132;BME280;64877;50.994;13.650;2023-10-19T06:07:50;97962.94;;;7.74;100.00
76132;BME280;64877;50.994;13.650;2023-10-19T06:10:20;97968.31;;;7.65;100.00
76132;BME280;64877;50.994;13.650;2023-10-19T06:12:47;97968.59;;;7.81;100.00
76132;BME280;64877;50.994;13.650;2023-10-19T06:15:14;97972.97;;;7.82;100.00
76132;BME280;64877;50.994;13.650;2023-10-19T06:17:41;97985.41;;;7.73;100.00
76132;BME280;64877;50.994;13.650;2023-10-19T06:20:11;97982.72;;;7.54;100.00
76132;BME280;64877;50.994;13.650;2023-10-19T06:22:50;97988.38;;;7.61;100.00
76132;BME280;64877;50.994;13.650;2023-10-19T06:25:18;97983.16;;;7.69;100.00
76132;BME280;64877;50.994;13.650;2023-10-19T06:27:44;97984.16;;;7.68;100.00
76132;BME280;64877;50.994;13.650;2023-10-19T06:30:10;97986.69;;;7.69;100.00
76132;BME280;64877;50.994;13.650;2023-10-19T06:32:36;97978.19;;;7.74;100.00
76132;BME280;64877;50.994;13.650;2023-10-19T06:35:03;97985.25;;;7.85;100.00
76132;BME280;64877;50.994;13.650;2023-10-19T06:37:28;97992.47;;;7.74;100.00
76132;BME280;64877;50.994;13.650;2023-10-19T06:39:54;97988.94;;;7.84;100.00
76132;BME280;64877;50.994;13.650;2023-10-19T06:42:19;97986.56;;;7.71;100.00
76132;BME280;64877;50.994;13.650;2023-10-19T06:44:46;97987.84;;;7.76;100.00
76132;BME280;64877;50.994;13.650;2023-10-19T06:47:11;97988.78;;;7.85;100.00
76132;BME280;64877;50.994;13.650;2023-10-19T06:49:39;97990.09;;;7.71;100.00
76132;BME280;64877;50.994;13.650;2023-10-19T06:52:04;97975.50;;;7.74;100.00
76132;BME280;64877;50.994;13.650;2023-10-19T06:54:31;97979.03;;;7.74;100.00
76132;BME280;64877;50.994;13.650;2023-10-19T06:56:56;97975.25;;;7.77;100.00
76132;BME280;64877;50.994;13.650;2023-10-19T06:59:22;97977.06;;;7.86;100.00
76132;BME280;64877;50.994;13.650;2023-10-19T07:01:49;97981.03;;;7.63;100.00
76132;BME280;64877;50.994;13.650;2023-10-19T07:04:15;97973.69;;;7.65;100.00
76132;BME280;64877;50.994;13.650;2023-10-19T07:06:41;97975.41;;;7.66;100.00
76132;BME280;64877;50.994;13.650;2023-10-19T07:09:06;97969.47;;;7.62;100.00
76132;BME280;64877;50.994;13.650;2023-10-19T07:11:32;97966.88;;;7.61;100.00
76132;BME280;64877;50.994;13.650;2023-10-19T07:13:59;97968.03;;;7.48;100.00
76132;BME280;64877;50.994;13.650;2023-10-19T07:16:25;97962.09;;;7.55;100.00
76132;BME280;64877;50.994;13.650;2023-10-19T07:18:52;97968.03;;;7.58;100.00
76132;BME280;64877;50.994;13.650;2023-10-19T07:21:18;97964.09;;;7.53;100.00
76132;BME280;64877;50.994;13.650;2023-10-19T07:23:44;97961.81;;;7.58;100.00
76132;BME280;64877;50.994;13.650;2023-10-19T07:26:11;97971.72;;;7.57;100.00
76132;BME280;64877;50.994;13.650;2023-10-19T07:28:39;97972.00;;;7.64;100.00
76132;BME280;64877;50.994;13.650;2023-10-19T07:31:05;97966.34;;;7.67;100.00
76132;BME280;64877;50.994;13.650;2023-10-19T07:33:34;97958.13;;;7.68;100.00
76132;BME280;64877;50.994;13.650;2023-10-19T07:36:03;97963.34;;;7.70;100.00
76132;BME280;64877;50.994;13.650;2023-10-19T07:38:33;97969.88;;;7.67;100.00
76132;BME280;64877;50.994;13.650;2023-10-19T07:41:00;97961.38;;;7.72;100.00
76132;BME280;64877;50.994;13.650;2023-10-19T07:43:26;97963.91;;;7.73;100.00
76132;BME280;64877;50.994;13.650;2023-10-19T07:45:51;97963.91;;;7.83;100.00
76132;BME280;64877;50.994;13.650;2023-10-19T07:48:17;97967.75;;;7.71;100.00
76132;BME280;64877;50.994;13.650;2023-10-19T07:50:43;97971.97;;;7.83;100.00
76132;BME280;64877;50.994;13.650;2023-10-19T07:53:08;97977.88;;;8.06;100.00
76132;BME280;64877;50.994;13.650;2023-10-19T07:55:37;97963.13;;;8.10;100.00
76132;BME280;64877;50.994;13.650;2023-10-19T07:58:04;97962.81;;;8.23;100.00
76132;BME280;64877;50.994;13.650;2023-10-19T08:00:30;97965.66;;;8.31;100.00
76132;BME280;64877;50.994;13.650;2023-10-19T08:02:55;97973.28;;;8.45;100.00
76132;BME280;64877;50.994;13.650;2023-10-19T08:05:21;97960.91;;;8.52;100.00
76132;BME280;64877;50.994;13.650;2023-10-19T08:07:47;97956.56;;;8.32;100.00
76132;BME280;64877;50.994;13.650;2023-10-19T08:10:17;97949.16;;;8.53;100.00
76132;BME280;64877;50.994;13.650;2023-10-19T08:12:44;97950.88;;;8.35;100.00
76132;BME280;64877;50.994;13.650;2023-10-19T08:15:13;97945.06;;;8.49;100.00
76132;BME280;64877;50.994;13.650;2023-10-19T08:17:45;97946.94;;;8.39;100.00
76132;BME280;64877;50.994;13.650;2023-10-19T08:20:12;97944.69;;;8.25;100.00
76132;BME280;64877;50.994;13.650;2023-10-19T08:22:44;97946.66;;;8.33;100.00
76132;BME280;64877;50.994;13.650;2023-10-19T08:25:13;97940.69;;;8.48;100.00
76132;BME280;64877;50.994;13.650;2023-10-19T08:27:41;97925.94;;;8.52;100.00
76132;BME280;64877;50.994;13.650;2023-10-19T08:30:10;97924.53;;;8.48;100.00
76132;BME280;64877;50.994;13.650;2023-10-19T08:32:38;97922.97;;;8.56;100.00
76132;BME280;64877;50.994;13.650;2023-10-19T08:35:04;97926.97;;;8.69;100.00
76132;BME280;64877;50.994;13.650;2023-10-19T08:37:31;97914.88;;;8.56;100.00
76132;BME280;64877;50.994;13.650;2023-10-19T08:39:57;97917.72;;;8.54;100.00
76132;BME280;64877;50.994;13.650;2023-10-19T08:42:23;97915.22;;;8.33;100.00
76132;BME280;64877;50.994;13.650;2023-10-19T08:44:49;97910.09;;;8.49;100.00
76132;BME280;64877;50.994;13.650;2023-10-19T08:47:14;97908.59;;;8.37;100.00
76132;BME280;64877;50.994;13.650;2023-10-19T08:49:41;97907.38;;;8.49;100.00
76132;BME280;64877;50.994;13.650;2023-10-19T08:52:07;97913.16;;;8.54;100.00
76132;BME280;64877;50.994;13.650;2023-10-19T08:54:33;97916.56;;;8.57;100.00
76132;BME280;64877;50.994;13.650;2023-10-19T08:56:59;97907.28;;;8.69;100.00
76132;BME280;64877;50.994;13.650;2023-10-19T08:59:25;97909.97;;;8.69;100.00
76132;BME280;64877;50.994;13.650;2023-10-19T09:02:02;97901.41;;;8.83;100.00
76132;BME280;64877;50.994;13.650;2023-10-19T09:04:28;97900.09;;;8.87;100.00
76132;BME280;64877;50.994;13.650;2023-10-19T09:06:54;97890.50;;;9.02;100.00
76132;BME280;64877;50.994;13.650;2023-10-19T09:09:20;97889.59;;;9.12;100.00
76132;BME280;64877;50.994;13.650;2023-10-19T09:11:47;97892.97;;;9.14;100.00
76132;BME280;64877;50.994;13.650;2023-10-19T09:14:14;97893.63;;;9.33;100.00
76132;BME280;64877;50.994;13.650;2023-10-19T09:16:56;97884.53;;;9.52;100.00
76132;BME280;64877;50.994;13.650;2023-10-19T09:19:42;97890.84;;;9.61;100.00
76132;BME280;64877;50.994;13.650;2023-10-19T09:22:08;97883.06;;;9.58;100.00
76132;BME280;64877;50.994;13.650;2023-10-19T09:24:50;97886.97;;;9.64;100.00
76132;BME280;64877;50.994;13.650;2023-10-19T09:27:22;97874.69;;;9.61;100.00
76132;BME280;64877;50.994;13.650;2023-10-19T09:29:49;97880.44;;;9.66;100.00
76132;BME280;64877;50.994;13.650;2023-10-19T09:32:16;97878.28;;;9.70;100.00
76132;BME280;64877;50.994;13.650;2023-10-19T09:34:44;97873.28;;;9.75;100.00
76132;BME280;64877;50.994;13.650;2023-10-19T09:37:10;97869.69;;;9.74;100.00
76132;BME280;64877;50.994;13.650;2023-10-19T09:39:36;97874.50;;;9.63;100.00
76132;BME280;64877;50.994;13.650;2023-10-19T09:42:07;97872.94;;;9.78;100.00
76132;BME280;64877;50.994;13.650;2023-10-19T09:44:54;97880.88;;;10.05;100.00
76132;BME280;64877;50.994;13.650;2023-10-19T09:47:29;97884.19;;;9.99;100.00
76132;BME280;64877;50.994;13.650;2023-10-19T09:50:00;97874.09;;;10.01;100.00
76132;BME280;64877;50.994;13.650;2023-10-19T09:52:27;97869.47;;;9.86;100.00
76132;BME280;64877;50.994;13.650;2023-10-19T09:57:35;97877.44;;;9.95;100.00
76132;BME280;64877;50.994;13.650;2023-10-19T10:00:04;97875.72;;;9.94;100.00
76132;BME280;64877;50.994;13.650;2023-10-19T10:02:42;97873.78;;;10.04;100.00
76132;BME280;64877;50.994;13.650;2023-10-19T10:10:49;97859.59;;;10.02;100.00
76132;BME280;64877;50.994;13.650;2023-10-19T10:15:52;97854.03;;;9.96;100.00
76132;BME280;64877;50.994;13.650;2023-10-19T10:18:18;97852.84;;;9.98;100.00
76132;BME280;64877;50.994;13.650;2023-10-19T10:20:44;97842.63;;;10.10;100.00
76132;BME280;64877;50.994;13.650;2023-10-19T10:23:23;97841.97;;;10.16;100.00
76132;BME280;64877;50.994;13.650;2023-10-19T10:25:57;97839.66;;;10.21;100.00
76132;BME280;64877;50.994;13.650;2023-10-19T10:28:24;97835.41;;;10.19;100.00
76132;BME280;64877;50.994;13.650;2023-10-19T10:31:11;97830.13;;;10.35;100.00
76132;BME280;64877;50.994;13.650;2023-10-19T10:36:06;97817.31;;;10.37;100.00
76132;BME280;64877;50.994;13.650;2023-10-19T10:38:35;97813.81;;;10.45;100.00
76132;BME280;64877;50.994;13.650;2023-10-19T10:41:03;97813.16;;;10.59;100.00
76132;BME280;64877;50.994;13.650;2023-10-19T10:43:29;97804.69;;;10.46;100.00
76132;BME280;64877;50.994;13.650;2023-10-19T10:46:06;97811.09;;;10.53;100.00
76132;BME280;64877;50.994;13.650;2023-10-19T10:48:41;97804.88;;;10.52;100.00
76132;BME280;64877;50.994;13.650;2023-10-19T10:51:23;97794.91;;;10.53;100.00
76132;BME280;64877;50.994;13.650;2023-10-19T10:53:52;97800.44;;;10.43;100.00
76132;BME280;64877;50.994;13.650;2023-10-19T10:56:22;97788.34;;;10.55;100.00
76132;BME280;64877;50.994;13.650;2023-10-19T10:58:49;97792.09;;;10.71;100.00
76132;BME280;64877;50.994;13.650;2023-10-19T11:01:27;97794.31;;;10.75;100.00
76132;BME280;64877;50.994;13.650;2023-10-19T11:04:07;97787.06;;;10.92;100.00
76132;BME280;64877;50.994;13.650;2023-10-19T11:06:33;97785.88;;;10.95;100.00
76132;BME280;64877;50.994;13.650;2023-10-19T11:09:09;97782.00;;;10.97;100.00
76132;BME280;64877;50.994;13.650;2023-10-19T11:11:38;97783.69;;;10.98;100.00
76132;BME280;64877;50.994;13.650;2023-10-19T11:14:09;97779.63;;;11.10;100.00
76132;BME280;64877;50.994;13.650;2023-10-19T11:16:36;97779.28;;;10.97;100.00
76132;BME280;64877;50.994;13.650;2023-10-19T11:19:02;97776.25;;;11.08;100.00
76132;BME280;64877;50.994;13.650;2023-10-19T11:21:28;97766.47;;;11.16;100.00
76132;BME280;64877;50.994;13.650;2023-10-19T11:23:53;97767.78;;;11.28;100.00
76132;BME280;64877;50.994;13.650;2023-10-19T11:26:20;97768.31;;;11.31;100.00
76132;BME280;64877;50.994;13.650;2023-10-19T11:28:46;97764.44;;;11.26;100.00
76132;BME280;64877;50.994;13.650;2023-10-19T11:31:23;97764.44;;;11.26;100.00
76132;BME280;64877;50.994;13.650;2023-10-19T11:33:53;97769.84;;;11.26;100.00
76132;BME280;64877;50.994;13.650;2023-10-19T11:36:21;97771.53;;;11.27;100.00
76132;BME280;64877;50.994;13.650;2023-10-19T11:38:50;97773.19;;;11.28;100.00
76132;BME280;64877;50.994;13.650;2023-10-19T11:41:17;97769.84;;;11.26;100.00
76132;BME280;64877;50.994;13.650;2023-10-19T11:43:44;97773.38;;;11.34;100.00
76132;BME280;64877;50.994;13.650;2023-10-19T11:46:10;97762.53;;;11.43;100.00
76132;BME280;64877;50.994;13.650;2023-10-19T11:48:50;97757.66;;;11.46;100.00
76132;BME280;64877;50.994;13.650;2023-10-19T11:51:16;97763.38;;;11.43;100.00
76132;BME280;64877;50.994;13.650;2023-10-19T11:53:42;97755.97;;;11.45;100.00
76132;BME280;64877;50.994;13.650;2023-10-19T11:56:12;97757.66;;;11.46;100.00
76132;BME280;64877;50.994;13.650;2023-10-19T11:58:38;97758.47;;;11.55;100.00
76132;BME280;64877;50.994;13.650;2023-10-19T12:01:05;97754.91;;;11.62;100.00
76132;BME280;64877;50.994;13.650;2023-10-19T12:03:36;97754.22;;;11.69;100.00
76132;BME280;64877;50.994;13.650;2023-10-19T12:06:08;97757.09;;;11.67;100.00
76132;BME280;64877;50.994;13.650;2023-10-19T12:08:36;97761.31;;;11.70;100.00
76132;BME280;64877;50.994;13.650;2023-10-19T12:11:03;97760.13;;;11.72;100.00
76132;BME280;64877;50.994;13.650;2023-10-19T12:13:30;97762.34;;;11.60;100.00
76132;BME280;64877;50.994;13.650;2023-10-19T12:15:57;97759.84;;;11.59;100.00
76132;BME280;64877;50.994;13.650;2023-10-19T12:18:24;97757.97;;;11.59;100.00
76132;BME280;64877;50.994;13.650;2023-10-19T12:20:51;97753.91;;;11.55;100.00
76132;BME280;64877;50.994;13.650;2023-10-19T12:23:22;97753.41;;;11.60;100.00
76132;BME280;64877;50.994;13.650;2023-10-19T12:25:49;97744.59;;;11.66;100.00
76132;BME280;64877;50.994;13.650;2023-10-19T12:28:15;97738.34;;;11.65;100.00
76132;BME280;64877;50.994;13.650;2023-10-19T12:30:41;97738.84;;;11.69;100.00
76132;BME280;64877;50.994;13.650;2023-10-19T12:33:08;97732.22;;;11.72;100.00
76132;BME280;64877;50.994;13.650;2023-10-19T12:35:40;97731.91;;;11.75;100.00
76132;BME280;64877;50.994;13.650;2023-10-19T12:38:21;97737.78;;;11.78;100.00
76132;BME280;64877;50.994;13.650;2023-10-19T12:40:49;97735.63;;;11.82;100.00
76132;BME280;64877;50.994;13.650;2023-10-19T12:43:17;97737.97;;;11.77;100.00
76132;BME280;64877;50.994;13.650;2023-10-19T12:45:50;97735.75;;;11.80;100.00
76132;BME280;64877;50.994;13.650;2023-10-19T12:48:16;97734.75;;;11.81;100.00
76132;BME280;64877;50.994;13.650;2023-10-19T12:50:42;97733.91;;;11.89;100.00
76132;BME280;64877;50.994;13.650;2023-10-19T12:53:08;97733.41;;;11.85;100.00
76132;BME280;64877;50.994;13.650;2023-10-19T12:55:35;97726.13;;;11.94;100.00
76132;BME280;64877;50.994;13.650;2023-10-19T12:58:04;97727.97;;;11.94;100.00
76132;BME280;64877;50.994;13.650;2023-10-19T13:00:36;97726.28;;;11.93;100.00
76132;BME280;64877;50.994;13.650;2023-10-19T13:03:07;97720.69;;;11.94;100.00
76132;BME280;64877;50.994;13.650;2023-10-19T13:08:00;97723.00;;;12.05;100.00
76132;BME280;64877;50.994;13.650;2023-10-19T13:10:29;97711.28;;;12.13;100.00
76132;BME280;64877;50.994;13.650;2023-10-19T13:12:59;97704.66;;;12.24;100.00